Time;durP1;ratioP1;P1;durP2;ratioP2;P2;SDS_P1;SDS_P2;PMS_P1;PMS_P2;Temp;Humidity;BMP_temperature;BMP_pressure;BME280_temperature;BME280_humidity;BME280_pressure;Samples;Min_cycle;Max_cycle;Signal;HPM_P1;HPM_P2
2021/07/10 00:02:21;;;;;;;14.32;11.80;;;15.60;99.90;;;;;;5127654;28;20119;-69
2021/07/10 00:04:47;;;;;;;15.63;12.95;;;15.70;99.90;;;;;;5113570;28;20049;-69
2021/07/10 00:07:13;;;;;;;13.93;11.52;;;15.70;99.90;;;;;;5127281;28;20411;-69
2021/07/10 00:09:39;;;;;;;12.50;10.80;;;15.70;99.90;;;;;;5127361;28;20036;-69
2021/07/10 00:12:05;;;;;;;13.63;11.45;;;15.70;99.90;;;;;;5125572;28;20548;-69
2021/07/10 00:14:31;;;;;;;14.05;11.35;;;15.80;99.90;;;;;;5126544;28;20052;-69
2021/07/10 00:16:57;;;;;;;11.52;10.30;;;15.80;99.90;;;;;;5126989;28;20040;-69
2021/07/10 00:19:24;;;;;;;12.60;10.20;;;15.80;99.90;;;;;;5126853;28;20089;-69
2021/07/10 00:21:50;;;;;;;12.23;10.75;;;15.70;99.90;;;;;;5126681;28;20040;-69
2021/07/10 00:24:17;;;;;;;11.27;9.93;;;15.70;99.90;;;;;;5126800;28;20071;-69
2021/07/10 00:26:44;;;;;;;11.70;10.32;;;15.70;99.90;;;;;;5126315;28;20127;-69
2021/07/10 00:29:09;;;;;;;15.73;12.05;;;15.60;99.90;;;;;;5126761;28;20052;-69
2021/07/10 00:31:35;;;;;;;12.88;11.52;;;15.60;99.90;;;;;;5126399;28;20036;-69
2021/07/10 00:34:01;;;;;;;13.43;10.45;;;15.40;99.90;;;;;;5126667;28;20110;-69
2021/07/10 00:36:27;;;;;;;14.95;10.35;;;15.20;99.90;;;;;;5120566;28;20039;-69
2021/07/10 00:38:53;;;;;;;12.38;10.27;;;15.10;99.90;;;;;;5126014;28;20061;-69
2021/07/10 00:41:19;;;;;;;13.07;11.63;;;15.10;99.90;;;;;;5120409;28;20055;-69
2021/07/10 00:43:48;;;;;;;13.35;11.43;;;15.00;99.90;;;;;;5124661;28;20040;-69
2021/07/10 00:46:19;;;;;;;14.20;12.20;;;15.10;99.90;;;;;;5125963;28;20043;-69
2021/07/10 00:48:47;;;;;;;15.00;11.40;;;15.10;99.90;;;;;;5126067;28;20047;-69
2021/07/10 00:51:13;;;;;;;12.55;11.27;;;15.10;99.90;;;;;;5125147;28;20124;-69
2021/07/10 00:53:39;;;;;;;15.00;12.52;;;15.10;99.90;;;;;;5125723;28;20089;-69
2021/07/10 00:56:06;;;;;;;17.45;13.75;;;15.00;99.90;;;;;;5126525;28;20043;-69
2021/07/10 00:58:33;;;;;;;15.05;13.20;;;14.90;99.90;;;;;;5126993;28;20043;-69
2021/07/10 01:01:00;;;;;;;15.77;13.20;;;14.80;99.90;;;;;;5126988;28;20092;-69
2021/07/10 01:03:30;;;;;;;14.25;12.00;;;14.80;99.90;;;;;;5126402;28;20036;-69
2021/07/10 01:05:56;;;;;;;13.60;11.57;;;14.60;99.90;;;;;;5126490;28;20063;-69
2021/07/10 01:08:21;;;;;;;14.70;11.85;;;14.60;99.90;;;;;;5126387;28;20544;-69
2021/07/10 01:10:48;;;;;;;13.93;11.23;;;14.50;99.90;;;;;;5107534;28;20065;-69
2021/07/10 01:13:14;;;;;;;14.32;12.80;;;14.50;99.90;;;;;;5112210;28;20126;-69
2021/07/10 01:15:40;;;;;;;13.60;11.77;;;14.50;99.90;;;;;;5125629;28;20067;-69
2021/07/10 01:18:05;;;;;;;15.80;13.15;;;14.50;99.90;;;;;;5125671;28;20491;-69
2021/07/10 01:20:31;;;;;;;15.38;13.00;;;14.50;99.90;;;;;;5125640;28;20035;-69
2021/07/10 01:22:58;;;;;;;15.75;13.35;;;14.30;99.90;;;;;;5125425;28;20035;-69
2021/07/10 01:25:25;;;;;;;17.30;13.68;;;14.20;99.90;;;;;;5124627;28;20435;-69
2021/07/10 01:27:53;;;;;;;16.45;14.52;;;14.20;99.90;;;;;;5126200;28;20047;-69
2021/07/10 01:30:20;;;;;;;18.88;14.73;;;14.20;99.90;;;;;;5107940;28;20047;-69
2021/07/10 01:32:48;;;;;;;15.43;12.68;;;14.30;99.90;;;;;;5125492;28;20137;-69
2021/07/10 01:35:14;;;;;;;13.07;11.65;;;14.30;99.90;;;;;;5118527;28;20404;-69
2021/07/10 01:37:44;;;;;;;12.45;10.32;;;14.30;99.90;;;;;;5118690;28;20043;-69
2021/07/10 01:40:12;;;;;;;12.77;11.40;;;14.10;99.90;;;;;;5120297;28;20074;-69
2021/07/10 01:42:38;;;;;;;15.57;11.82;;;13.90;99.90;;;;;;5122097;28;20047;-69
2021/07/10 01:45:05;;;;;;;15.18;11.25;;;13.90;99.90;;;;;;5125882;28;20047;-69
2021/07/10 01:47:31;;;;;;;12.48;11.07;;;13.80;99.90;;;;;;5125347;28;20111;-69
2021/07/10 01:49:57;;;;;;;16.30;12.35;;;13.70;99.90;;;;;;5125664;28;20062;-69
2021/07/10 01:52:23;;;;;;;12.57;11.25;;;13.80;99.90;;;;;;5125457;28;20044;-69
2021/07/10 01:54:49;;;;;;;13.30;11.60;;;13.80;99.90;;;;;;5125038;28;20123;-69
2021/07/10 01:57:17;;;;;;;13.95;11.52;;;13.90;99.90;;;;;;5128104;28;20479;-69
2021/07/10 01:59:43;;;;;;;14.68;12.05;;;14.00;99.90;;;;;;5129682;28;20048;-69
2021/07/10 02:02:09;;;;;;;10.73;8.95;;;14.00;99.90;;;;;;5129517;28;20044;-69
2021/07/10 02:04:44;;;;;;;12.90;9.55;;;14.00;99.90;;;;;;5127857;28;20043;-69
2021/07/10 02:07:11;;;;;;;12.27;9.95;;;14.00;99.90;;;;;;5129398;28;20051;-69
2021/07/10 02:09:36;;;;;;;11.25;10.05;;;14.00;99.90;;;;;;5130168;28;20051;-69
2021/07/10 02:12:02;;;;;;;17.20;11.38;;;14.00;99.90;;;;;;5128831;28;20046;-69
2021/07/10 02:14:28;;;;;;;11.88;10.20;;;14.00;99.90;;;;;;5129280;28;20047;-69
2021/07/10 02:16:54;;;;;;;11.80;9.93;;;14.00;99.90;;;;;;5127443;28;20092;-69
2021/07/10 02:19:20;;;;;;;14.02;10.90;;;13.80;99.90;;;;;;5117448;28;20069;-69
2021/07/10 02:21:45;;;;;;;13.75;11.00;;;13.70;99.90;;;;;;5128044;28;20130;-69
2021/07/10 02:24:11;;;;;;;13.13;10.38;;;13.70;99.90;;;;;;5129023;28;20043;-69
2021/07/10 02:26:37;;;;;;;15.13;11.88;;;13.70;99.90;;;;;;5122479;28;20099;-69
2021/07/10 02:29:06;;;;;;;12.60;10.30;;;13.80;99.90;;;;;;5129214;28;20047;-69
2021/07/10 02:31:35;;;;;;;11.98;9.35;;;13.80;99.90;;;;;;5129062;28;20043;-69
2021/07/10 02:34:02;;;;;;;20.25;11.50;;;13.80;99.90;;;;;;5128779;28;20059;-69
2021/07/10 02:36:28;;;;;;;74.68;15.18;;;13.50;99.90;;;;;;5128703;28;20043;-69
2021/07/10 02:38:54;;;;;;;15.45;13.02;;;13.40;99.90;;;;;;5128896;28;20043;-70
2021/07/10 02:41:20;;;;;;;26.40;11.85;;;13.40;99.90;;;;;;5113763;28;20126;-70
2021/07/10 02:43:45;;;;;;;14.48;12.30;;;13.40;99.90;;;;;;5128705;28;20050;-70
2021/07/10 02:46:12;;;;;;;9.98;8.98;;;13.40;99.90;;;;;;5128884;28;20495;-70
2021/07/10 02:48:38;;;;;;;22.65;10.52;;;13.50;99.90;;;;;;5114966;28;20065;-70
2021/07/10 02:51:04;;;;;;;10.45;9.35;;;13.60;99.90;;;;;;5128935;28;20099;-70
2021/07/10 02:53:30;;;;;;;12.57;9.50;;;13.60;99.90;;;;;;5128225;28;20410;-70
2021/07/10 02:55:55;;;;;;;11.55;9.25;;;13.70;99.90;;;;;;5127799;28;20130;-70
2021/07/10 02:58:21;;;;;;;9.45;8.55;;;13.70;99.90;;;;;;5128210;27;20039;-70
2021/07/10 03:00:47;;;;;;;8.80;8.00;;;13.90;99.90;;;;;;5110384;28;20046;-70
2021/07/10 03:03:13;;;;;;;9.90;8.90;;;13.90;99.90;;;;;;5128106;28;20040;-70
2021/07/10 03:05:43;;;;;;;;;;;14.00;99.90;;;;;;5128670;28;20039;-70
2021/07/10 03:08:09;;;;;;;10.27;9.13;;;13.90;99.90;;;;;;5128171;28;19919;-70
2021/07/10 03:10:35;;;;;;;11.52;10.00;;;14.00;99.90;;;;;;5114735;28;20050;-70
2021/07/10 03:13:01;;;;;;;11.38;10.00;;;14.10;99.90;;;;;;5128334;28;20043;-70
2021/07/10 03:15:28;;;;;;;11.32;10.13;;;14.10;99.90;;;;;;5127870;28;20118;-70
2021/07/10 03:17:54;;;;;;;11.68;10.48;;;14.10;99.90;;;;;;5128742;28;20054;-70
2021/07/10 03:20:22;;;;;;;11.40;10.20;;;14.10;99.90;;;;;;5127881;28;20035;-70
2021/07/10 03:22:49;;;;;;;11.38;9.82;;;14.10;99.90;;;;;;5128116;28;20070;-70
2021/07/10 03:25:15;;;;;;;10.50;9.40;;;14.10;99.90;;;;;;5127386;28;20039;-70
2021/07/10 03:27:42;;;;;;;11.88;10.68;;;14.20;99.90;;;;;;5128391;28;20055;-70
2021/07/10 03:30:11;;;;;;;11.52;9.20;;;14.20;99.90;;;;;;5127941;28;20045;-70
2021/07/10 03:32:38;;;;;;;13.75;10.73;;;14.40;99.90;;;;;;5128094;28;20050;-70
2021/07/10 03:35:06;;;;;;;16.42;12.38;;;14.40;99.90;;;;;;5125081;28;20039;-70
2021/07/10 03:37:32;;;;;;;12.88;11.38;;;14.30;99.90;;;;;;5118215;27;20069;-70
2021/07/10 03:39:57;;;;;;;14.60;11.70;;;14.40;99.90;;;;;;5127294;28;20042;-70
2021/07/10 03:42:23;;;;;;;15.30;11.48;;;14.50;99.90;;;;;;5127109;28;20050;-70
2021/07/10 03:44:49;;;;;;;13.73;11.68;;;14.50;99.90;;;;;;5127356;28;20099;-70
2021/07/10 03:47:15;;;;;;;15.68;13.20;;;14.50;99.90;;;;;;5127778;28;20048;-70
2021/07/10 03:49:43;;;;;;;14.13;12.05;;;14.50;99.90;;;;;;5127630;28;20729;-70
2021/07/10 03:52:10;;;;;;;16.05;13.18;;;14.50;99.90;;;;;;5127271;28;20488;-70
2021/07/10 03:54:35;;;;;;;13.43;11.25;;;14.50;99.90;;;;;;5113424;28;20043;-70
2021/07/10 03:57:01;;;;;;;12.32;10.05;;;14.40;99.90;;;;;;5127426;28;20044;-70
2021/07/10 03:59:27;;;;;;;13.23;10.73;;;14.40;99.90;;;;;;5127305;28;20043;-70
2021/07/10 04:01:53;;;;;;;12.73;9.50;;;14.30;99.90;;;;;;5127384;28;20103;-70
2021/07/10 04:04:19;;;;;;;12.13;10.10;;;14.20;99.90;;;;;;5127277;28;20067;-70
2021/07/10 04:06:44;;;;;;;13.05;10.65;;;14.30;99.90;;;;;;5127117;28;20046;-70
2021/07/10 04:09:10;;;;;;;12.32;10.65;;;14.10;99.90;;;;;;5124937;28;20052;-70
2021/07/10 04:11:36;;;;;;;13.18;11.63;;;14.10;99.90;;;;;;5114556;28;20039;-70
2021/07/10 04:14:02;;;;;;;12.38;11.02;;;14.10;99.90;;;;;;5126692;28;20044;-70
2021/07/10 04:16:28;;;;;;;15.85;11.15;;;14.10;99.90;;;;;;5114246;27;20043;-63
2021/07/10 04:18:54;;;;;;;13.63;11.32;;;14.10;99.90;;;;;;5132848;27;20122;-64
2021/07/10 04:21:20;;;;;;;12.25;9.80;;;14.10;99.90;;;;;;5113431;28;20039;-63
2021/07/10 04:23:46;;;;;;;14.02;12.00;;;14.10;99.90;;;;;;5101998;28;20044;-64
2021/07/10 04:26:12;;;;;;;16.60;11.85;;;14.10;99.90;;;;;;5122850;28;20054;-63
2021/07/10 04:28:43;;;;;;;15.25;13.00;;;14.10;99.90;;;;;;5126513;28;20039;-63
2021/07/10 04:31:09;;;;;;;14.93;12.07;;;14.20;99.90;;;;;;5109513;28;20072;-64
2021/07/10 04:33:35;;;;;;;17.35;13.98;;;14.30;99.90;;;;;;5123007;28;20047;-64
2021/07/10 04:36:01;;;;;;;15.02;12.38;;;14.30;99.90;;;;;;5117863;28;20039;-64
2021/07/10 04:38:27;;;;;;;20.17;14.77;;;14.40;99.90;;;;;;5120021;28;20043;-64
2021/07/10 04:40:53;;;;;;;18.98;13.73;;;14.50;99.90;;;;;;5116325;28;20098;-63
2021/07/10 04:43:18;;;;;;;16.38;12.55;;;14.60;99.90;;;;;;5122376;28;20042;-64
2021/07/10 04:45:44;;;;;;;17.35;13.63;;;14.60;99.90;;;;;;5124146;28;20114;-64
2021/07/10 04:48:11;;;;;;;22.23;16.02;;;14.50;99.90;;;;;;5126839;28;20103;-64
2021/07/10 04:50:37;;;;;;;21.23;15.27;;;14.60;99.90;;;;;;5126453;28;20044;-63
2021/07/10 04:53:03;;;;;;;20.83;14.90;;;14.70;99.90;;;;;;5126512;28;20122;-64
2021/07/10 04:55:29;;;;;;;26.98;16.80;;;14.70;99.90;;;;;;5125180;28;20035;-63
2021/07/10 04:57:56;;;;;;;21.90;15.60;;;14.80;99.90;;;;;;5114889;28;20496;-64
2021/07/10 05:00:24;;;;;;;23.50;15.95;;;14.80;99.90;;;;;;5111967;28;20039;-64
2021/07/10 05:02:50;;;;;;;31.65;18.75;;;14.80;99.90;;;;;;5125296;28;20066;-64
2021/07/10 05:05:16;;;;;;;30.75;19.17;;;14.90;99.90;;;;;;5124589;28;20043;-64
2021/07/10 05:07:44;;;;;;;27.05;18.13;;;14.90;99.90;;;;;;5125176;28;20059;-64
2021/07/10 05:10:10;;;;;;;31.17;20.92;;;14.90;99.90;;;;;;5125829;28;20099;-63
2021/07/10 05:12:36;;;;;;;29.50;19.25;;;15.00;99.90;;;;;;5123362;28;20035;-64
2021/07/10 05:15:03;;;;;;;29.50;20.02;;;15.10;99.90;;;;;;5122149;28;20051;-63
2021/07/10 05:17:29;;;;;;;28.17;19.17;;;15.20;99.90;;;;;;5123954;28;20039;-63
2021/07/10 05:19:54;;;;;;;29.95;20.15;;;15.30;99.90;;;;;;5124634;28;20065;-63
2021/07/10 05:22:20;;;;;;;32.17;22.40;;;15.30;99.90;;;;;;5124968;28;20032;-64
2021/07/10 05:24:46;;;;;;;30.42;22.63;;;15.30;99.90;;;;;;5101743;28;20106;-64
2021/07/10 05:27:12;;;;;;;30.55;21.67;;;15.40;99.90;;;;;;5119327;28;20055;-63
2021/07/10 05:29:38;;;;;;;32.53;22.55;;;15.50;99.90;;;;;;5119728;28;20039;-63
2021/07/10 05:32:04;;;;;;;36.17;24.67;;;15.50;99.90;;;;;;5118952;28;20523;-63
2021/07/10 05:34:30;;;;;;;38.65;26.42;;;15.50;99.90;;;;;;5103341;28;20051;-63
2021/07/10 05:36:56;;;;;;;42.10;27.42;;;15.60;99.90;;;;;;5109526;28;20047;-64
2021/07/10 05:39:22;;;;;;;35.88;25.08;;;15.60;99.90;;;;;;5117045;28;20103;-63
2021/07/10 05:41:48;;;;;;;40.17;25.80;;;15.60;99.90;;;;;;5117554;28;20056;-65
2021/07/10 05:44:14;;;;;;;34.65;24.20;;;15.70;99.90;;;;;;5109657;28;20058;-64
2021/07/10 05:46:39;;;;;;;37.45;23.00;;;15.70;99.90;;;;;;5117636;28;20040;-63
2021/07/10 05:49:06;;;;;;;36.58;26.35;;;15.80;99.90;;;;;;5122711;28;20044;-64
2021/07/10 05:51:32;;;;;;;36.65;26.58;;;15.80;99.90;;;;;;5111966;28;20123;-64
2021/07/10 05:53:58;;;;;;;34.88;24.15;;;15.90;99.90;;;;;;5114002;28;20047;-64
2021/07/10 05:56:24;;;;;;;32.83;24.60;;;15.90;99.90;;;;;;5119254;28;20059;-64
2021/07/10 05:58:49;;;;;;;34.30;23.42;;;16.00;99.90;;;;;;5108028;28;20052;-64
2021/07/10 06:01:15;;;;;;;29.20;21.80;;;16.00;99.90;;;;;;5099558;28;20074;-64
2021/07/10 06:03:41;;;;;;;33.10;24.15;;;16.10;99.90;;;;;;5120429;28;20046;-64
2021/07/10 06:06:07;;;;;;;34.03;25.38;;;16.10;99.90;;;;;;5121054;28;20093;-64
2021/07/10 06:08:33;;;;;;;33.50;25.15;;;16.20;99.90;;;;;;5123526;28;20051;-64
2021/07/10 06:10:59;;;;;;;33.10;23.30;;;16.20;99.90;;;;;;5122170;28;20082;-65
2021/07/10 06:13:25;;;;;;;37.40;24.42;;;16.20;99.90;;;;;;5125452;28;20046;-65
2021/07/10 06:15:50;;;;;;;31.65;23.95;;;16.30;99.90;;;;;;5082666;28;20066;-66
2021/07/10 06:18:16;;;;;;;30.88;22.98;;;16.30;99.90;;;;;;5098486;28;20055;-64
2021/07/10 06:20:42;;;;;;;29.13;21.60;;;16.40;99.90;;;;;;5112551;28;20159;-65
2021/07/10 06:23:08;;;;;;;29.25;22.70;;;16.40;99.90;;;;;;5120286;28;20039;-64
2021/07/10 06:25:36;;;;;;;27.50;20.92;;;16.40;99.90;;;;;;5099481;28;20043;-65
2021/07/10 06:28:05;;;;;;;30.40;21.73;;;16.50;99.90;;;;;;5097592;28;20051;-65
2021/07/10 06:30:31;;;;;;;30.10;22.65;;;16.60;99.90;;;;;;5113687;28;20039;-65
2021/07/10 06:32:57;;;;;;;31.23;23.70;;;16.60;99.90;;;;;;5099671;28;20505;-65
2021/07/10 06:35:23;;;;;;;30.35;23.40;;;16.70;99.90;;;;;;5096431;28;20070;-65
2021/07/10 06:37:49;;;;;;;30.25;23.20;;;16.70;99.90;;;;;;5103776;28;20101;-65
2021/07/10 06:40:16;;;;;;;28.83;21.60;;;16.80;99.90;;;;;;5116542;28;20048;-65
2021/07/10 06:42:42;;;;;;;26.48;20.17;;;16.90;99.90;;;;;;5105238;28;20108;-65
2021/07/10 06:45:12;;;;;;;31.10;22.80;;;17.00;99.90;;;;;;5114582;28;20136;-65
2021/07/10 06:47:38;;;;;;;26.88;21.40;;;17.00;99.90;;;;;;5088080;28;20200;-65
2021/07/10 06:50:07;;;;;;;32.08;24.15;;;17.10;99.90;;;;;;5115292;28;20040;-65
2021/07/10 06:52:33;;;;;;;30.20;21.83;;;17.10;99.90;;;;;;5091404;28;20050;-66
2021/07/10 06:54:59;;;;;;;25.70;21.15;;;17.20;99.90;;;;;;5114711;28;20043;-66
2021/07/10 06:57:25;;;;;;;22.50;17.88;;;17.30;99.90;;;;;;5099476;28;20066;-66
2021/07/10 06:59:51;;;;;;;26.27;21.23;;;17.40;99.90;;;;;;5117932;28;20047;-66
2021/07/10 07:02:17;;;;;;;26.88;22.50;;;17.50;99.90;;;;;;5104471;28;20107;-67
2021/07/10 07:04:43;;;;;;;29.58;21.58;;;17.50;99.90;;;;;;5119447;28;20051;-66
2021/07/10 07:07:09;;;;;;;25.38;18.75;;;17.60;99.90;;;;;;5116295;28;20028;-66
2021/07/10 07:09:34;;;;;;;22.60;18.25;;;17.60;99.90;;;;;;5100635;28;20062;-65
2021/07/10 07:12:00;;;;;;;26.17;21.23;;;17.60;99.90;;;;;;5117898;28;20063;-65
2021/07/10 07:14:26;;;;;;;30.55;23.10;;;17.60;99.90;;;;;;5107791;27;20390;-65
2021/07/10 07:16:55;;;;;;;34.08;24.92;;;17.50;99.90;;;;;;5082083;28;20125;-64
2021/07/10 07:19:21;;;;;;;28.47;20.33;;;17.50;99.90;;;;;;5108232;28;20517;-63
2021/07/10 07:21:47;;;;;;;27.63;21.98;;;17.50;99.90;;;;;;5120619;28;20047;-64
2021/07/10 07:24:13;;;;;;;29.38;24.33;;;17.50;99.90;;;;;;5091381;28;20483;-63
2021/07/10 07:26:38;;;;;;;28.27;22.20;;;17.50;99.90;;;;;;5114866;28;20047;-63
2021/07/10 07:29:04;;;;;;;29.52;21.33;;;17.50;99.90;;;;;;5098501;27;20056;-63
2021/07/10 07:31:30;;;;;;;27.88;21.17;;;17.50;99.90;;;;;;5109408;28;20614;-63
2021/07/10 07:33:56;;;;;;;28.40;20.25;;;17.50;99.90;;;;;;5106581;27;20402;-65
2021/07/10 07:36:21;;;;;;;25.95;18.40;;;17.50;99.90;;;;;;5118983;28;20044;-65
2021/07/10 07:38:47;;;;;;;27.33;19.60;;;17.50;99.90;;;;;;5109389;28;20047;-65
2021/07/10 07:41:13;;;;;;;30.63;20.02;;;17.60;99.90;;;;;;5107717;28;20066;-66
2021/07/10 07:43:39;;;;;;;29.40;21.00;;;17.50;99.90;;;;;;5110069;28;20055;-66
2021/07/10 07:46:05;;;;;;;25.20;19.52;;;17.50;99.90;;;;;;5120743;28;20055;-66
2021/07/10 07:48:30;;;;;;;25.27;19.20;;;17.50;99.90;;;;;;5089652;28;20081;-66
2021/07/10 07:50:57;;;;;;;26.67;19.73;;;17.50;99.90;;;;;;5107398;28;20051;-65
2021/07/10 07:53:22;;;;;;;26.77;19.13;;;17.50;99.90;;;;;;5096112;28;20041;-66
2021/07/10 07:55:49;;;;;;;27.83;20.08;;;17.60;99.90;;;;;;5087053;28;20109;-65
2021/07/10 07:58:15;;;;;;;30.30;21.38;;;17.60;99.90;;;;;;5101679;28;20044;-66
2021/07/10 08:00:40;;;;;;;25.70;19.70;;;17.50;99.90;;;;;;5102482;28;20042;-65
2021/07/10 08:03:06;;;;;;;29.33;21.10;;;17.50;99.90;;;;;;5113438;27;20067;-65
2021/07/10 08:05:32;;;;;;;30.77;22.73;;;17.50;99.90;;;;;;5118250;27;20051;-65
2021/07/10 08:07:58;;;;;;;30.40;22.60;;;17.70;99.90;;;;;;5107108;28;20179;-61
2021/07/10 08:10:24;;;;;;;26.67;21.30;;;17.70;99.90;;;;;;5121672;27;20044;-64
2021/07/10 08:12:50;;;;;;;30.75;21.77;;;17.60;99.90;;;;;;5106871;28;20047;-63
2021/07/10 08:15:21;;;;;;;28.95;20.58;;;17.50;99.90;;;;;;5102935;28;20047;-63
2021/07/10 08:17:50;;;;;;;33.10;22.08;;;17.50;99.90;;;;;;5098029;28;20065;-63
2021/07/10 08:20:16;;;;;;;32.83;22.48;;;17.50;99.90;;;;;;5118876;27;20043;-63
2021/07/10 08:22:43;;;;;;;30.40;22.08;;;17.60;99.90;;;;;;5106309;28;20087;-63
2021/07/10 08:25:10;;;;;;;31.52;21.83;;;17.60;99.90;;;;;;5113531;27;20071;-63
2021/07/10 08:27:36;;;;;;;32.70;21.92;;;17.50;99.90;;;;;;5112642;28;20503;-65
2021/07/10 08:30:05;;;;;;;31.00;23.02;;;17.50;99.90;;;;;;5099834;28;20083;-65
2021/07/10 08:32:30;;;;;;;30.15;22.05;;;17.50;99.90;;;;;;5117625;28;20039;-65
2021/07/10 08:34:56;;;;;;;33.50;23.20;;;17.60;99.90;;;;;;5108093;28;20048;-64
2021/07/10 08:37:22;;;;;;;31.30;21.75;;;17.50;99.90;;;;;;5120468;28;20047;-65
2021/07/10 08:39:48;;;;;;;34.13;23.38;;;17.50;99.90;;;;;;5109217;27;20047;-65
2021/07/10 08:42:14;;;;;;;37.67;24.75;;;17.40;99.90;;;;;;5119871;28;20260;-65
2021/07/10 08:44:41;;;;;;;30.83;23.08;;;17.40;99.90;;;;;;5109076;28;20641;-65
2021/07/10 08:47:13;;;;;;;32.42;22.90;;;17.30;99.90;;;;;;5119803;28;20047;-65
2021/07/10 08:49:40;;;;;;;31.58;22.58;;;17.30;99.90;;;;;;5106879;28;20136;-65
2021/07/10 08:52:07;;;;;;;31.02;21.40;;;17.50;99.90;;;;;;5114784;28;20050;-65
2021/07/10 08:54:33;;;;;;;28.73;21.45;;;17.60;99.90;;;;;;5111537;27;20055;-65
2021/07/10 08:57:00;;;;;;;31.70;21.58;;;17.70;99.90;;;;;;5107199;28;20075;-65
2021/07/10 08:59:26;;;;;;;29.15;21.70;;;17.90;99.90;;;;;;5107994;28;20087;-65
2021/07/10 09:01:54;;;;;;;27.50;20.23;;;17.90;99.90;;;;;;5118612;28;20450;-64
2021/07/10 09:04:23;;;;;;;26.38;19.85;;;18.00;99.90;;;;;;5083183;28;20066;-65
2021/07/10 09:06:50;;;;;;;26.77;19.45;;;18.20;99.90;;;;;;5107668;28;20047;-65
2021/07/10 09:09:16;;;;;;;26.23;19.08;;;18.30;99.90;;;;;;5102526;28;20067;-65
2021/07/10 09:12:01;;;;;;;26.38;18.67;;;18.40;99.90;;;;;;5111430;28;20048;-65
2021/07/10 09:14:30;;;;;;;24.00;18.60;;;18.50;99.90;;;;;;5094431;28;20417;-65
2021/07/10 09:17:20;;;;;;;23.58;18.23;;;18.60;99.90;;;;;;5107083;28;20043;-65
2021/07/10 09:19:47;;;;;;;35.13;16.77;;;18.70;99.90;;;;;;5088487;28;20067;-65
2021/07/10 09:22:28;;;;;;;21.92;15.80;;;18.90;99.90;;;;;;5120333;28;20047;-64
2021/07/10 09:24:56;;;;;;;18.58;13.88;;;19.10;99.90;;;;;;5099414;28;20139;-65
2021/07/10 09:27:22;;;;;;;20.35;14.75;;;19.20;99.90;;;;;;5114637;28;20263;-67
2021/07/10 09:29:49;;;;;;;19.50;16.33;;;19.30;99.90;;;;;;5080145;28;20674;-67
2021/07/10 09:32:22;;;;;;;19.55;15.15;;;19.50;99.90;;;;;;5110083;28;20051;-67
2021/07/10 09:34:51;;;;;;;18.70;14.93;;;19.60;99.90;;;;;;5075774;28;20058;-67
2021/07/10 09:37:20;;;;;;;18.00;14.52;;;19.80;99.90;;;;;;5113091;28;20059;-67
2021/07/10 09:40:01;;;;;;;17.83;14.07;;;20.00;99.90;;;;;;5103360;28;20052;-67
2021/07/10 09:42:35;;;;;;;18.50;14.73;;;20.10;99.90;;;;;;5102921;28;20066;-67
2021/07/10 09:45:03;;;;;;;17.85;13.93;;;20.30;99.90;;;;;;5099737;28;20436;-67
2021/07/10 09:47:35;;;;;;;19.88;14.90;;;20.40;99.90;;;;;;5115983;28;20114;-67
2021/07/10 09:50:07;;;;;;;18.02;14.05;;;20.60;99.90;;;;;;5103143;28;20116;-67
2021/07/10 09:52:35;;;;;;;17.48;14.07;;;20.80;99.90;;;;;;5115632;28;20042;-67
2021/07/10 09:55:08;;;;;;;17.10;14.70;;;20.90;99.90;;;;;;5107319;28;20044;-67
2021/07/10 09:57:36;;;;;;;20.15;15.10;;;21.00;99.90;;;;;;5116174;28;20323;-67
2021/07/10 10:00:05;;;;;;;18.85;15.80;;;21.10;99.90;;;;;;5106153;28;20059;-67
2021/07/10 10:02:34;;;;;;;18.65;15.38;;;21.10;99.90;;;;;;5117559;28;20048;-67
2021/07/10 10:05:06;;;;;;;19.48;14.05;;;21.20;99.90;;;;;;5107006;28;20538;-67
2021/07/10 10:07:55;;;;;;;20.25;16.42;;;21.20;99.90;;;;;;5110331;28;20040;-67
2021/07/10 10:10:33;;;;;;;20.70;15.95;;;20.90;99.90;;;;;;5074823;28;20075;-67
2021/07/10 10:13:05;;;;;;;19.38;14.68;;;20.80;99.90;;;;;;5110124;28;20044;-67
2021/07/10 10:15:39;;;;;;;18.60;14.93;;;20.70;99.90;;;;;;5090835;28;20055;-67
2021/07/10 10:18:06;;;;;;;20.20;15.68;;;20.60;99.90;;;;;;5106557;28;20040;-67
2021/07/10 10:20:33;;;;;;;20.90;16.58;;;20.40;99.90;;;;;;5103256;27;20047;-67
2021/07/10 10:23:00;;;;;;;22.08;18.33;;;20.10;99.90;;;;;;5108545;28;20062;-67
2021/07/10 10:25:26;;;;;;;19.98;16.88;;;19.90;99.90;;;;;;5089927;28;20054;-67
2021/07/10 10:27:52;;;;;;;20.92;16.55;;;19.70;99.90;;;;;;5111758;28;20047;-67
2021/07/10 10:30:20;;;;;;;18.73;15.35;;;19.50;99.90;;;;;;5113243;27;20058;-67
2021/07/10 10:32:46;;;;;;;19.02;14.38;;;19.40;99.90;;;;;;5119653;27;20046;-67
2021/07/10 10:35:13;;;;;;;20.90;15.65;;;19.30;99.90;;;;;;5111348;28;20035;-67
2021/07/10 10:37:40;;;;;;;18.88;15.02;;;19.30;99.90;;;;;;5122364;28;20051;-67
2021/07/10 10:40:21;;;;;;;17.67;14.23;;;19.30;99.90;;;;;;5113221;27;20073;-67
2021/07/10 10:42:56;;;;;;;15.10;12.80;;;19.40;99.90;;;;;;5122119;28;20043;-67
2021/07/10 10:45:41;;;;;;;14.63;13.05;;;19.40;99.90;;;;;;5111485;28;20044;-67
2021/07/10 10:48:08;;;;;;;16.15;13.13;;;19.60;99.90;;;;;;5120453;28;20099;-67
2021/07/10 10:50:36;;;;;;;15.80;13.20;;;19.70;99.90;;;;;;5090851;28;20052;-67
2021/07/10 10:53:05;;;;;;;17.48;13.00;;;20.00;99.90;;;;;;5117364;28;20043;-67
2021/07/10 10:55:33;;;;;;;17.83;12.98;;;20.40;99.90;;;;;;5110946;28;20055;-67
2021/07/10 10:58:13;;;;;;;17.63;14.07;;;20.70;99.90;;;;;;5121439;28;20523;-67
2021/07/10 11:00:41;;;;;;;17.35;13.48;;;21.00;99.90;;;;;;5108211;28;20108;-65
2021/07/10 11:03:08;;;;;;;18.67;14.57;;;21.10;99.90;;;;;;5105233;28;20048;-65
2021/07/10 11:05:33;;;;;;;20.23;14.27;;;21.30;99.90;;;;;;5108444;28;20063;-65
2021/07/10 11:08:18;;;;;;;18.08;14.68;;;21.20;99.90;;;;;;5115399;28;20048;-66
2021/07/10 11:10:46;;;;;;;19.02;15.20;;;21.50;99.90;;;;;;5095187;27;20060;-71
2021/07/10 11:13:30;;;;;;;19.75;15.85;;;21.30;99.90;;;;;;5101180;28;20081;-71
2021/07/10 11:16:22;;;;;;;18.42;15.55;;;21.30;99.90;;;;;;5088670;28;20059;-71
2021/07/10 11:18:56;;;;;;;18.23;15.32;;;21.50;99.90;;;;;;5098606;27;20078;-70
2021/07/10 11:21:31;;;;;;;18.45;14.95;;;21.70;99.90;;;;;;5120543;27;20036;-70
2021/07/10 11:24:15;;;;;;;17.40;13.88;;;21.70;99.90;;;;;;5105763;28;20045;-70
2021/07/10 11:27:02;;;;;;;14.57;12.82;;;21.90;99.90;;;;;;5122103;27;20086;-70
2021/07/10 11:29:32;;;;;;;16.02;12.75;;;21.90;99.90;;;;;;5095052;27;20201;-70
2021/07/10 11:32:16;;;;;;;15.77;13.63;;;21.90;99.90;;;;;;5111973;27;20058;-66
2021/07/10 11:34:51;;;;;;;14.55;12.27;;;21.70;99.90;;;;;;5098547;28;20070;-66
2021/07/10 11:37:23;;;;;;;15.98;12.07;;;21.80;99.90;;;;;;5101070;28;20071;-67
2021/07/10 11:40:04;;;;;;;15.02;12.75;;;21.60;99.90;;;;;;5109961;27;20071;-67
2021/07/10 11:42:34;;;;;;;14.73;12.63;;;21.60;99.90;;;;;;5125506;27;20464;-66
2021/07/10 11:45:08;;;;;;;17.63;13.55;;;21.60;99.90;;;;;;5110362;28;20059;-66
2021/07/10 11:47:35;;;;;;;16.73;13.93;;;21.80;99.90;;;;;;5120950;28;20572;-66
2021/07/10 11:50:10;;;;;;;16.40;13.93;;;22.00;99.90;;;;;;5108463;28;20082;-66
2021/07/10 11:52:36;;;;;;;16.77;14.02;;;22.00;99.90;;;;;;5117871;28;20044;-66
2021/07/10 11:55:06;;;;;;;18.98;13.95;;;22.30;99.90;;;;;;5110227;28;20598;-66
2021/07/10 11:57:35;;;;;;;16.70;13.65;;;22.30;99.90;;;;;;5116948;28;20620;-66
2021/07/10 12:00:04;;;;;;;17.45;14.07;;;22.50;99.90;;;;;;5109744;28;20081;-67
2021/07/10 12:02:32;;;;;;;16.35;14.57;;;22.40;99.90;;;;;;5102475;28;20053;-66
2021/07/10 12:05:07;;;;;;;17.58;13.52;;;22.50;99.90;;;;;;5117853;27;20051;-66
2021/07/10 12:07:47;;;;;;;17.52;13.00;;;22.80;99.90;;;;;;5121040;27;20411;-66
2021/07/10 12:10:36;;;;;;;16.13;13.05;;;22.80;99.90;;;;;;5109276;28;20063;-67
2021/07/10 12:13:09;;;;;;;14.70;12.30;;;23.00;99.90;;;;;;5102856;28;20040;-67
2021/07/10 12:15:41;;;;;;;18.08;13.60;;;23.00;99.90;;;;;;5085978;28;20150;-67
2021/07/10 12:18:11;;;;;;;14.48;12.20;;;23.10;99.90;;;;;;5109660;28;20036;-67
2021/07/10 12:20:39;;;;;;;14.32;12.52;;;23.10;99.90;;;;;;5087166;28;20055;-67
2021/07/10 12:23:12;;;;;;;16.05;13.07;;;23.20;99.90;;;;;;5111924;28;20094;-66
2021/07/10 12:25:59;;;;;;;13.80;12.23;;;23.50;99.90;;;;;;5104644;28;20107;-67
2021/07/10 12:28:55;;;;;;;14.23;12.10;;;23.60;99.90;;;;;;5113621;28;20054;-66
2021/07/10 12:31:21;;;;;;;13.55;12.13;;;23.60;99.90;;;;;;5082221;28;20044;-66
2021/07/10 12:33:51;;;;;;;18.58;12.73;;;23.50;99.90;;;;;;5117960;28;20330;-66